Thunder radar more information blitzortung!


avis per Pluja more information rain snow radar


Visita la nostra xarxa de llocs de meteo:

Template documentation
and downloads

And another site



Rain From: 17-10-2018 23:00 Until: 18-10-2018 16:59 warning for: Rain Level: Yellow info button

Pagina Historial Weather Underground text

Diari Resum Juny 7, 2017 Unitats:  Imperial    Mètric   Tant
« Previous Dia
SegĂźent Dia »
Diari Setmana Mensual Anual Personalitzada
  Maxima: Minima: Media:
Temperatura: TemperatureC °F 17.1 °F 20.1 °F
Punt de rosada: DewpointC °F 8.6 °F 12.7 °F
Humitat: Humidity % 51 % 62 %
Wind Speed: WindSpeedKMH mph 0.0 mph 6.6 mph
RĂ fegues de vent: WindSpeedGustKMH mph - -
Vent:- - SSW
Pression baro: PressurehPa in 1017.8 in -
Precipitacions: 0.0 in    
Historical Graphs
 
 
Dades de taula per Juny 7, 2017
Temps Temperatura Punt de rosada Pression baro Vent Wind Speed RĂ fegues de vent Humitat Rainfall Rate (Hourly)
TemperatureC °F DewpointC °F PressurehPa in Calm     Humidity % HourlyPrecipMM in
00:03 19.0 °F 14.1 °F 1017.8 in SSE 3.7 mph 3.7 mph 73 % 0.0 in
00:05 17.1 °F 13.6 °F 1018.8 in SSW 3.2 mph 3.2 mph 80 % 0.0 in
00:08 19.0 °F 14.1 °F 1017.8 in ESE 5.6 mph 5.6 mph 73 % 0.0 in
00:15 17.1 °F 13.6 °F 1018.8 in SW 3.2 mph 6.4 mph 80 % 0.0 in
00:25 17.2 °F 13.9 °F 1018.8 in SW 1.6 mph 3.2 mph 81 % 0.0 in
00:35 17.2 °F 13.9 °F 1018.8 in SW 1.6 mph 3.2 mph 81 % 0.0 in
00:45 17.3 °F 14.0 °F 1019.9 in SW 1.6 mph 4.8 mph 81 % 0.0 in
00:55 17.3 °F 14.0 °F 1019.9 in SW 1.6 mph 4.8 mph 81 % 0.0 in
01:05 17.3 °F 14.0 °F 1019.9 in SW 1.6 mph 1.6 mph 81 % 0.0 in
01:15 17.3 °F 14.0 °F 1019.9 in SW 1.6 mph 4.8 mph 81 % 0.0 in
01:25 17.5 °F 14.2 °F 1019.9 in SW 1.6 mph 3.2 mph 81 % 0.0 in
01:35 17.3 °F 13.4 °F 1019.9 in WSW 3.2 mph 6.4 mph 78 % 0.0 in
01:45 17.3 °F 12.8 °F 1019.9 in WSW 4.8 mph 6.4 mph 75 % 0.0 in
01:55 17.1 °F 11.8 °F 1019.9 in West 1.6 mph 4.8 mph 71 % 0.0 in
02:05 17.2 °F 11.2 °F 1019.9 in WNW 3.2 mph 6.4 mph 68 % 0.0 in
02:15 17.4 °F 11.2 °F 1019.9 in WNW 4.8 mph 8.0 mph 67 % 0.0 in
02:25 17.2 °F 10.6 °F 1019.9 in West 4.8 mph 6.4 mph 65 % 0.0 in
02:35 17.2 °F 10.3 °F 1019.9 in West 3.2 mph 4.8 mph 64 % 0.0 in
02:45 17.7 °F 10.6 °F 1020.9 in West 3.2 mph 3.2 mph 63 % 0.0 in
02:55 18.2 °F 10.8 °F 1019.9 in West 3.2 mph 6.4 mph 62 % 0.0 in
03:05 18.0 °F 10.4 °F 1019.9 in West 1.6 mph 8.0 mph 61 % 0.0 in
03:15 18.1 °F 10.2 °F 1020.9 in West 3.2 mph 4.8 mph 60 % 0.0 in
03:25 18.2 °F 10.1 °F 1020.9 in West 4.8 mph 6.4 mph 59 % 0.0 in
03:35 18.4 °F 10.2 °F 1020.9 in West 3.2 mph 4.8 mph 59 % 0.0 in
03:45 18.5 °F 9.8 °F 1020.9 in WSW 4.8 mph 4.8 mph 57 % 0.0 in
03:55 18.5 °F 9.3 °F 1021.9 in West 8.0 mph 8.0 mph 55 % 0.0 in
04:05 18.4 °F 8.9 °F 1021.9 in West 1.6 mph 4.8 mph 54 % 0.0 in
04:15 18.6 °F 9.1 °F 1021.9 in West 1.6 mph 3.2 mph 54 % 0.0 in
04:25 18.7 °F 8.9 °F 1021.9 in WSW 3.2 mph 3.2 mph 53 % 0.0 in
04:35 18.7 °F 9.2 °F 1021.9 in Calm   3.2 mph 54 % 0.0 in
04:45 18.7 °F 8.9 °F 1021.9 in WSW 1.6 mph 3.2 mph 53 % 0.0 in
04:55 19.0 °F 8.9 °F 1021.9 in WSW 3.2 mph 4.8 mph 52 % 0.0 in
05:05 19.0 °F 8.6 °F 1021.9 in SSW 1.6 mph 4.8 mph 51 % 0.0 in
05:15 19.4 °F 9.3 °F 1021.9 in Calm   1.6 mph 52 % 0.0 in
05:25 19.4 °F 9.3 °F 1021.9 in SSW 1.6 mph 6.4 mph 52 % 0.0 in
05:35 19.5 °F 9.7 °F 1021.9 in Calm   1.6 mph 53 % 0.0 in
10:36 19.5 °F 9.7 °F 1021.9 in South 3.9 mph 3.9 mph 53 % 0.0 in
10:41 19.2 °F 9.4 °F 1021.9 in WSW 5.6 mph 5.6 mph 53 % 0.0 in
10:46 19.1 °F 9.6 °F 1021.9 in WSW 3.7 mph 3.7 mph 54 % 0.0 in
10:51 19.1 °F 9.3 °F 1020.9 in SSW 3.7 mph 3.7 mph 53 % 0.0 in
10:56 19.1 °F 9.6 °F 1020.9 in SW 3.7 mph 3.7 mph 54 % 0.0 in
11:01 19.2 °F 9.7 °F 1020.9 in SW 2.3 mph   54 % 0.0 in
11:06 19.1 °F 9.8 °F 1020.9 in South 3.7 mph 3.7 mph 55 % 0.0 in
11:11 18.9 °F 9.9 °F 1020.9 in SW 5.6 mph 5.6 mph 56 % 0.0 in
11:16 18.8 °F 10.1 °F 1020.9 in SW 5.3 mph 5.3 mph 57 % 0.0 in
11:21 18.8 °F 10.1 °F 1020.9 in SW 3.7 mph 3.7 mph 57 % 0.0 in
11:26 18.7 °F 10.3 °F 1020.9 in SW 5.6 mph 5.6 mph 58 % 0.0 in
11:31 18.5 °F 10.6 °F 1020.9 in SW 9.3 mph 9.3 mph 60 % 0.0 in
11:36 18.4 °F 10.7 °F 1021.9 in SW 4.2 mph 4.7 mph 61 % 0.0 in
11:41 18.6 °F 11.2 °F 1021.9 in SW 4.7 mph 4.7 mph 62 % 0.0 in
11:46 19.0 °F 11.6 °F 1021.9 in SW 5.6 mph 5.6 mph 62 % 0.0 in
11:51 19.3 °F 12.1 °F 1021.9 in SSE 3.5 mph 3.5 mph 63 % 0.0 in
11:56 19.5 °F 12.3 °F 1021.9 in South 3.7 mph 3.7 mph 63 % 0.0 in
12:01 19.5 °F 12.5 °F 1021.9 in SW 5.3 mph 5.3 mph 64 % 0.0 in
12:06 19.9 °F 12.7 °F 1021.9 in SSE 3.7 mph 3.7 mph 63 % 0.0 in
12:11 19.3 °F 12.1 °F 1021.9 in ESE 7.4 mph 7.4 mph 63 % 0.0 in
12:16 19.3 °F 12.1 °F 1021.9 in NE 6.4 mph 6.4 mph 63 % 0.0 in
12:21 19.8 °F 12.3 °F 1021.9 in NE 4.7 mph 4.7 mph 62 % 0.0 in
12:26 20.3 °F 12.6 °F 1021.9 in NNE 9.0 mph 9.0 mph 61 % 0.0 in
12:31 20.0 °F 12.2 °F 1021.9 in East 7.4 mph 7.4 mph 61 % 0.0 in
12:36 20.1 °F 12.6 °F 1020.9 in ESE 7.4 mph 7.4 mph 62 % 0.0 in
12:41 19.9 °F 12.7 °F 1020.9 in ESE 7.4 mph 7.4 mph 63 % 0.0 in
12:46 20.2 °F 12.9 °F 1020.9 in ESE 6.1 mph 6.1 mph 63 % 0.0 in
12:51 20.2 °F 13.2 °F 1021.9 in NE 5.6 mph 5.6 mph 64 % 0.0 in
12:56 20.2 °F 13.2 °F 1021.9 in ESE 9.7 mph 9.7 mph 64 % 0.0 in
13:01 20.5 °F 13.7 °F 1021.9 in ESE 9.5 mph 9.5 mph 65 % 0.0 in
13:06 20.1 °F 13.3 °F 1020.9 in East 16.1 mph 16.1 mph 65 % 0.0 in
13:16 20.5 °F 13.7 °F 1020.9 in SE 11.1 mph 11.1 mph 65 % 0.0 in
13:21 20.4 °F 13.6 °F 1020.9 in ENE 7.4 mph 7.4 mph 65 % 0.0 in
13:26 20.5 °F 13.7 °F 1020.9 in SSE 11.1 mph 11.1 mph 65 % 0.0 in
13:31 20.2 °F 13.4 °F 1020.9 in East 13.0 mph 13.0 mph 65 % 0.0 in
13:36 20.1 °F 13.3 °F 1019.9 in SSE 11.1 mph 11.1 mph 65 % 0.0 in
13:41 20.2 °F 13.7 °F 1019.9 in ESE 11.1 mph 11.1 mph 66 % 0.0 in
13:47 20.0 °F 13.4 °F 1019.9 in East 11.1 mph 11.1 mph 66 % 0.0 in
13:52 20.1 °F 13.8 °F 1019.9 in East 6.4 mph 6.4 mph 67 % 0.0 in
13:57 20.2 °F 13.7 °F 1019.9 in SW 5.6 mph 5.6 mph 66 % 0.0 in
14:02 20.6 °F 14.0 °F 1019.9 in South 5.6 mph 5.6 mph 66 % 0.0 in
14:07 21.0 °F 14.2 °F 1019.9 in ESE 6.4 mph 6.4 mph 65 % 0.0 in
14:12 21.2 °F 14.3 °F 1019.9 in South 3.7 mph 3.7 mph 65 % 0.0 in
14:17 21.9 °F 14.6 °F 1019.9 in ESE 13.0 mph 13.0 mph 63 % 0.0 in
14:22 22.2 °F 14.1 °F 1019.9 in SW 16.7 mph 16.7 mph 60 % 0.0 in
14:27 22.5 °F 14.1 °F 1019.9 in South 5.6 mph 5.6 mph 59 % 0.0 in
14:32 23.0 °F 14.6 °F 1019.9 in SW 9.3 mph 9.3 mph 59 % 0.0 in
14:37 23.1 °F 14.7 °F 1019.9 in SSW 5.6 mph 5.6 mph 59 % 0.0 in
14:42 23.2 °F 14.2 °F 1019.9 in SSW 11.1 mph 11.1 mph 57 % 0.0 in
14:43 23.3 °F 14.3 °F 1019.9 in SW 9.3 mph 9.3 mph 57 % 0.0 in
14:48 23.7 °F 14.4 °F 1019.9 in SW 12.6 mph 12.6 mph 56 % 0.0 in
14:53 23.3 °F 13.8 °F 1019.9 in WSW 11.1 mph 11.1 mph 55 % 0.0 in
14:58 22.9 °F 13.4 °F 1019.9 in SW 12.2 mph 12.2 mph 55 % 0.0 in
15:03 23.0 °F 13.4 °F 1018.8 in SSW 9.3 mph 9.3 mph 55 % 0.0 in
15:08 23.9 °F 14.0 °F 1018.8 in West 5.6 mph 5.6 mph 54 % 0.0 in
15:13 24.4 °F 14.2 °F 1018.8 in SW 9.3 mph 9.3 mph 53 % 0.0 in
15:18 24.6 °F 14.4 °F 1019.9 in South 9.3 mph 9.3 mph 53 % 0.0 in
15:23 24.1 °F 13.6 °F 1019.9 in South 3.7 mph 3.9 mph 52 % 0.0 in
15:28 23.9 °F 13.4 °F 1019.9 in South 13.0 mph 13.0 mph 52 % 0.0 in
15:33 24.0 °F 13.8 °F 1019.9 in SW 7.4 mph 7.4 mph 53 % 0.0 in
15:38 23.9 °F 13.7 °F 1019.9 in SW 9.3 mph 9.3 mph 53 % 0.0 in
15:43 23.3 °F 13.2 °F 1019.9 in North 5.6 mph 5.6 mph 53 % 0.0 in
15:48 23.3 °F 13.2 °F 1019.9 in South 7.4 mph 7.4 mph 53 % 0.0 in
15:53 23.1 °F 13.0 °F 1019.9 in SSE 9.3 mph 9.3 mph 53 % 0.0 in
15:58 23.5 °F 13.4 °F 1019.9 in SW 13.0 mph 13.0 mph 53 % 0.0 in
16:03 23.2 °F 13.1 °F 1018.8 in SW 11.1 mph 11.1 mph 53 % 0.0 in
16:08 23.7 °F 13.6 °F 1018.8 in WSW 13.0 mph 13.0 mph 53 % 0.0 in
16:13 23.7 °F 13.6 °F 1018.8 in SW 9.3 mph 9.3 mph 53 % 0.0 in
16:18 23.2 °F 13.1 °F 1019.9 in WSW 9.3 mph 9.3 mph 53 % 0.0 in
16:23 23.5 °F 13.4 °F 1019.9 in WSW 11.1 mph 11.1 mph 53 % 0.0 in
16:28 23.2 °F 13.1 °F 1019.9 in South 9.3 mph 9.3 mph 53 % 0.0 in
16:33 22.8 °F 13.0 °F 1019.9 in WSW 11.1 mph 11.1 mph 54 % 0.0 in
16:38 22.8 °F 13.0 °F 1019.9 in SW 13.0 mph 13.0 mph 54 % 0.0 in
16:43 23.0 °F 13.2 °F 1019.9 in SW 14.8 mph 14.8 mph 54 % 0.0 in
16:48 22.8 °F 13.3 °F 1019.9 in SW 5.8 mph 5.8 mph 55 % 0.0 in
16:53 22.7 °F 13.2 °F 1019.9 in SW 11.1 mph 11.1 mph 55 % 0.0 in
16:58 22.7 °F 13.2 °F 1019.9 in SSE 13.0 mph 13.0 mph 55 % 0.0 in
17:03 24.1 °F 14.2 °F 1019.9 in WNW 7.4 mph 7.4 mph 54 % 0.0 in
17:08 23.8 °F 13.9 °F 1019.9 in WSW 13.0 mph 13.0 mph 54 % 0.0 in
17:13 23.0 °F 13.2 °F 1019.9 in SW 14.8 mph 14.8 mph 54 % 0.0 in
17:18 22.6 °F 13.1 °F 1019.9 in WNW 11.1 mph 11.1 mph 55 % 0.0 in
17:23 22.4 °F 13.2 °F 1019.9 in SW 12.2 mph 12.2 mph 56 % 0.0 in
17:28 22.2 °F 13.0 °F 1019.9 in SSW 12.6 mph 12.6 mph 56 % 0.0 in
17:33 22.1 °F 13.2 °F 1019.9 in SW 7.4 mph 7.4 mph 57 % 0.0 in
17:38 22.2 °F 13.3 °F 1019.9 in SSW 11.1 mph 11.1 mph 57 % 0.0 in
17:43 22.2 °F 13.3 °F 1019.9 in SSW 9.3 mph 9.3 mph 57 % 0.0 in
17:48 22.3 °F 13.4 °F 1019.9 in South 9.3 mph 9.3 mph 57 % 0.0 in
17:53 22.3 °F 13.4 °F 1019.9 in South 7.4 mph 7.4 mph 57 % 0.0 in
17:58 22.6 °F 13.7 °F 1019.9 in SSW 7.4 mph 7.4 mph 57 % 0.0 in
18:03 22.8 °F 13.8 °F 1018.8 in South 14.8 mph 14.8 mph 57 % 0.0 in
18:08 22.7 °F 13.7 °F 1018.8 in SW 9.3 mph 9.3 mph 57 % 0.0 in
18:13 22.5 °F 13.6 °F 1018.8 in SSW 16.7 mph 16.7 mph 57 % 0.0 in
18:14 22.5 °F 13.6 °F 1018.8 in WSW 11.1 mph 11.1 mph 57 % 0.0 in
18:19 22.6 °F 13.7 °F 1018.8 in WSW 13.0 mph 13.0 mph 57 % 0.0 in
18:24 22.8 °F 13.8 °F 1018.8 in SSW 8.7 mph 8.7 mph 57 % 0.0 in
18:29 22.8 °F 13.8 °F 1018.8 in SSW 11.1 mph 11.1 mph 57 % 0.0 in
18:34 22.9 °F 13.9 °F 1018.8 in WSW 11.1 mph 11.1 mph 57 % 0.0 in
18:39 22.7 °F 13.7 °F 1018.8 in SW 5.6 mph 5.6 mph 57 % 0.0 in
18:44 22.4 °F 13.4 °F 1018.8 in WSW 13.0 mph 13.0 mph 57 % 0.0 in
18:49 22.5 °F 13.8 °F 1018.8 in SSW 6.1 mph 6.1 mph 58 % 0.0 in
18:54 22.3 °F 13.6 °F 1018.8 in SW 5.6 mph 5.8 mph 58 % 0.0 in
18:59 21.7 °F 13.3 °F 1018.8 in SSW 9.3 mph 9.3 mph 59 % 0.0 in
19:04 21.5 °F 13.2 °F 1018.8 in SW 9.3 mph 9.3 mph 59 % 0.0 in
19:09 21.2 °F 13.1 °F 1018.8 in SW 13.0 mph 13.0 mph 60 % 0.0 in
19:14 20.8 °F 13.0 °F 1018.8 in SSW 11.1 mph 11.1 mph 61 % 0.0 in
19:19 20.8 °F 13.0 °F 1018.8 in SW 9.7 mph 9.7 mph 61 % 0.0 in
19:24 20.9 °F 13.3 °F 1018.8 in SW 11.9 mph 11.9 mph 62 % 0.0 in
19:29 20.8 °F 13.3 °F 1018.8 in SW 7.4 mph 7.4 mph 62 % 0.0 in
19:34 20.8 °F 13.3 °F 1018.8 in SW 11.1 mph 11.1 mph 62 % 0.0 in
19:39 20.8 °F 13.5 °F 1018.8 in SW 5.6 mph 5.6 mph 63 % 0.0 in
19:44 20.8 °F 13.5 °F 1018.8 in SW 13.0 mph 13.0 mph 63 % 0.0 in
19:49 20.7 °F 13.4 °F 1018.8 in SW 7.4 mph 7.4 mph 63 % 0.0 in
19:54 20.7 °F 13.4 °F 1018.8 in SW 7.4 mph 7.4 mph 63 % 0.0 in
19:59 20.7 °F 13.4 °F 1018.8 in SW 7.4 mph 7.4 mph 63 % 0.0 in
20:04 20.5 °F 13.4 °F 1018.8 in SW 6.1 mph 6.1 mph 64 % 0.0 in
20:05 20.5 °F 13.4 °F 1018.8 in SSE 5.6 mph 5.6 mph 64 % 0.0 in
20:10 20.4 °F 13.3 °F 1018.8 in WSW 6.1 mph 6.1 mph 64 % 0.0 in
20:15 20.3 °F 13.3 °F 1018.8 in SW 9.3 mph 9.3 mph 64 % 0.0 in
20:20 20.3 °F 13.3 °F 1018.8 in SW 5.6 mph 5.6 mph 64 % 0.0 in
20:25 20.2 °F 13.2 °F 1018.8 in SSW 7.4 mph 7.4 mph 64 % 0.0 in
20:30 20.1 °F 13.3 °F 1018.8 in South 7.4 mph 7.4 mph 65 % 0.0 in
20:35 20.1 °F 13.3 °F 1019.9 in SW 9.3 mph 9.3 mph 65 % 0.0 in
20:40 20.0 °F 13.2 °F 1019.9 in WSW 5.6 mph 5.6 mph 65 % 0.0 in
20:45 20.0 °F 13.2 °F 1019.9 in SSW 3.7 mph   65 % 0.0 in
20:50 20.0 °F 13.4 °F 1018.8 in SW 2.6 mph   66 % 0.0 in
20:55 20.0 °F 13.2 °F 1018.8 in SW 5.6 mph 5.6 mph 65 % 0.0 in
21:00 19.9 °F 13.3 °F 1018.8 in SSW 5.6 mph 5.6 mph 66 % 0.0 in
21:05 19.7 °F 13.2 °F 1019.9 in SSW 7.4 mph 7.4 mph 66 % 0.0 in
21:10 19.6 °F 13.3 °F 1019.9 in WSW 9.3 mph 9.3 mph 67 % 0.0 in
21:15 19.5 °F 13.2 °F 1019.9 in SW 5.6 mph 5.6 mph 67 % 0.0 in
21:20 19.3 °F 13.2 °F 1019.9 in WSW 5.6 mph 5.6 mph 68 % 0.0 in
21:25 19.2 °F 13.2 °F 1019.9 in SW 3.7 mph 3.7 mph 68 % 0.0 in
21:30 19.1 °F 13.1 °F 1019.9 in SSW 5.6 mph 5.6 mph 68 % 0.0 in
21:35 18.9 °F 13.3 °F 1019.9 in SSW 7.4 mph 7.4 mph 70 % 0.0 in
21:40 18.8 °F 13.2 °F 1019.9 in SW 3.7 mph 3.7 mph 70 % 0.0 in
21:45 18.7 °F 13.1 °F 1019.9 in WSW 3.9 mph 3.9 mph 70 % 0.0 in
21:50 18.6 °F 13.2 °F 1019.9 in WSW 5.6 mph 5.6 mph 71 % 0.0 in
21:55 18.6 °F 13.2 °F 1019.9 in SW 3.7 mph 3.7 mph 71 % 0.0 in
22:00 18.5 °F 13.3 °F 1019.9 in SW 2.3 mph 2.3 mph 72 % 0.0 in
22:05 18.5 °F 13.3 °F 1019.9 in WSW 3.7 mph 3.7 mph 72 % 0.0 in
22:10 18.4 °F 13.3 °F 1019.9 in SW 3.7 mph 3.7 mph 72 % 0.0 in
22:15 18.4 °F 13.4 °F 1019.9 in SW 2.6 mph   73 % 0.0 in
22:20 18.3 °F 13.4 °F 1019.9 in SW 3.7 mph 3.7 mph 73 % 0.0 in
22:23 18.3 °F 13.4 °F 1019.9 in SW 5.6 mph 5.6 mph 73 % 0.0 in
22:28 18.3 °F 13.4 °F 1019.9 in SW 1.9 mph 1.9 mph 73 % 0.0 in
22:33 18.2 °F 13.5 °F 1019.9 in WSW 1.9 mph   74 % 0.0 in
22:43 18.2 °F 13.5 °F 1019.9 in SW 1.9 mph   74 % 0.0 in
22:48 18.1 °F 13.4 °F 1019.9 in SSW 1.9 mph 1.9 mph 74 % 0.0 in
22:53 18.0 °F 13.3 °F 1019.9 in WSW 2.6 mph 2.6 mph 74 % 0.0 in
22:58 18.0 °F 13.5 °F 1019.9 in WSW 3.2 mph 3.2 mph 75 % 0.0 in
23:03 18.0 °F 13.5 °F 1019.9 in WSW 3.7 mph 3.7 mph 75 % 0.0 in
23:08 17.9 °F 13.4 °F 1019.9 in WSW 1.9 mph 1.9 mph 75 % 0.0 in
23:13 17.9 °F 13.4 °F 1019.9 in SW 3.7 mph 3.7 mph 75 % 0.0 in
23:18 17.9 °F 13.4 °F 1019.9 in West 3.7 mph 3.7 mph 75 % 0.0 in
23:23 17.8 °F 13.5 °F 1019.9 in WSW 3.7 mph 3.7 mph 76 % 0.0 in
23:28 17.8 °F 13.5 °F 1019.9 in WSW 3.7 mph 3.7 mph 76 % 0.0 in
23:33 17.7 °F 13.4 °F 1019.9 in WSW 1.9 mph   76 % 0.0 in
23:38 17.7 °F 13.4 °F 1019.9 in WSW 3.7 mph 3.7 mph 76 % 0.0 in
23:43 17.7 °F 13.6 °F 1019.9 in WSW 1.9 mph 1.9 mph 77 % 0.0 in
23:48 17.6 °F 13.5 °F 1019.9 in SW 1.9 mph   77 % 0.0 in
23:53 17.7 °F 13.6 °F 1019.9 in SW 1.9 mph   77 % 0.0 in
23:58 17.7 °F 13.8 °F 1019.9 in WSW 2.6 mph 2.6 mph 78 % 0.0 in
Meteo Sesrovires
Elogis d' Weather Underground - 1.5 mb

Guio original per  Jim McMurry - jmcmurry@mwt.net Adaptat per a la plantilla per  Wim van der Kuil - Leuven-Template.eu

Trobareu la nostra informacio del temps tambe a:

Weather Underground

AWEKAS